Wilson Gaeta — 8PTS — position and weather

sailwx.info

Track history (hours):
 
Tides and Currents Weather Stations Pressure Air Temp Water Temp Dewpoint Dewpoint Depression Visibility Wind Speed Wind Dir Waves Ship Positions

Wilson Gaeta

Last reported at 2015-Mar-01 07:33 UTC. Time now 2015-Mar-01 08:30 UTC.
Position N 43°06' E 006°57'.

Length 88 m; draft 5.7 m.

Type: Cargo ship. MMSI: 314237000.

Date/timePositionNaut miles runAvg speedWind from/ knotsBaromVisibWave heightAir tempDewpointWater temp
2015-Mar-01 07:33N 43°06' E 006°57'9 8.7
2015-Mar-01 06:33N 43°01' E 006°47'8 7.7
2015-Mar-01 05:33N 42°57' E 006°38'57 8.0
2015-Feb-28 22:28N 42°50' E 005°21'9 7.7
2015-Feb-28 21:18N 42°50' E 005°09'8 7.8
2015-Feb-28 20:18N 42°49' E 004°58'6 8.1
2015-Feb-28 19:33N 42°49' E 004°50'9 8.1
2015-Feb-28 18:28N 42°48' E 004°38'8 8.3
2015-Feb-28 17:33N 42°48' E 004°28'8 7.8
2015-Feb-28 16:33N 42°48' E 004°17'9 8.3
2015-Feb-28 15:31N 42°47' E 004°06'8 8.5
2015-Feb-28 14:33N 42°47' E 003°54'9 8.4
2015-Feb-28 13:29N 42°46' E 003°42'6 6.3
2015-Feb-28 12:28N 42°40' E 003°41'7 7.6
2015-Feb-28 11:33N 42°33' E 003°40'5 5.1
2015-Feb-28 10:33N 42°27' E 003°39'6 4.9
2015-Feb-28 09:17N 42°21' E 003°37'3 4.2
2015-Feb-28 08:31N 42°18' E 003°36'9 3.9
2015-Feb-28 06:14N 42°10' E 003°31'16 4.0
2015-Feb-28 02:13N 41°55' E 003°24'15 3.9
2015-Feb-27 22:28N 41°44' E 003°11'6 4.9
2015-Feb-27 21:13N 41°40' E 003°04'4 5.5
2015-Feb-27 20:28N 41°38' E 002°60'8 6.5
2015-Feb-27 19:13N 41°33' E 002°52'4 6.6
2015-Feb-27 18:33N 41°30' E 002°47'7 6.9
2015-Feb-27 17:28N 41°25' E 002°39'6 6.5
2015-Feb-27 16:28N 41°21' E 002°33'7 6.6
2015-Feb-27 15:28N 41°18' E 002°25'156 7.4
2015-Feb-26 18:19N 39°37' W 000°11'2 0.1
2015-Feb-26 01:15N 39°39' W 000°13'5 7.1
2015-Feb-26 00:33N 39°34' W 000°09'  
2015-Feb-19 19:11N 35°60' W 005°13'3 4.9
2015-Feb-19 18:33N 35°60' W 005°17'5 4.9
2015-Feb-19 17:32N 35°59' W 005°23'6 5.8
2015-Feb-19 16:33N 35°57' W 005°29'  
Track history (hours):
 
Tides and Currents Weather Stations Pressure Air Temp Water Temp Dewpoint Dewpoint Depression Visibility Wind Speed Wind Dir Waves Ship Positions

Wilson Gaeta

Last reported at 2015-Mar-01 07:33 UTC. Time now 2015-Mar-01 08:30 UTC.
Position N 43°06' E 006°57'.

Length 88 m; draft 5.7 m.

Type: Cargo ship. MMSI: 314237000.

Date/timePositionNaut miles runAvg speedWind from/ knotsBaromVisibWave heightAir tempDewpointWater temp
2015-Mar-01 07:33N 43°06' E 006°57'9 8.7
2015-Mar-01 06:33N 43°01' E 006°47'8 7.7
2015-Mar-01 05:33N 42°57' E 006°38'57 8.0
2015-Feb-28 22:28N 42°50' E 005°21'9 7.7
2015-Feb-28 21:18N 42°50' E 005°09'8 7.8
2015-Feb-28 20:18N 42°49' E 004°58'6 8.1
2015-Feb-28 19:33N 42°49' E 004°50'9 8.1
2015-Feb-28 18:28N 42°48' E 004°38'8 8.3
2015-Feb-28 17:33N 42°48' E 004°28'8 7.8
2015-Feb-28 16:33N 42°48' E 004°17'9 8.3
2015-Feb-28 15:31N 42°47' E 004°06'8 8.5
2015-Feb-28 14:33N 42°47' E 003°54'9 8.4
2015-Feb-28 13:29N 42°46' E 003°42'6 6.3
2015-Feb-28 12:28N 42°40' E 003°41'7 7.6
2015-Feb-28 11:33N 42°33' E 003°40'5 5.1
2015-Feb-28 10:33N 42°27' E 003°39'6 4.9
2015-Feb-28 09:17N 42°21' E 003°37'3 4.2
2015-Feb-28 08:31N 42°18' E 003°36'9 3.9
2015-Feb-28 06:14N 42°10' E 003°31'16 4.0
2015-Feb-28 02:13N 41°55' E 003°24'15 3.9
2015-Feb-27 22:28N 41°44' E 003°11'6 4.9
2015-Feb-27 21:13N 41°40' E 003°04'4 5.5
2015-Feb-27 20:28N 41°38' E 002°60'8 6.5
2015-Feb-27 19:13N 41°33' E 002°52'4 6.6
2015-Feb-27 18:33N 41°30' E 002°47'7 6.9
2015-Feb-27 17:28N 41°25' E 002°39'6 6.5
2015-Feb-27 16:28N 41°21' E 002°33'7 6.6
2015-Feb-27 15:28N 41°18' E 002°25'156 7.4
2015-Feb-26 18:19N 39°37' W 000°11'2 0.1
2015-Feb-26 01:15N 39°39' W 000°13'5 7.1
2015-Feb-26 00:33N 39°34' W 000°09'  
2015-Feb-19 19:11N 35°60' W 005°13'3 4.9
2015-Feb-19 18:33N 35°60' W 005°17'5 4.9
2015-Feb-19 17:32N 35°59' W 005°23'6 5.8
2015-Feb-19 16:33N 35°57' W 005°29'  

Dump ship's entire track history